Pagina principale
METAR-TAF:

METAR-TAF

Aeroporti :

Altenstadt, Germania

latitudine: 47-50N, longitudine: 010-52E, altezza: 739 m

Osservazione

Il bollettino è stato emesso 6 ore e 35 minuti fa, alle 05:20 UTC
Vento 3 kt da ovest/sud-ovest
Temperature 15°C
Umidità 88%
Pressione 1022 hPa
Visibilità 10 km o più

METAR: ETHA 210520Z 24003KT 9999 15/13 Q1022 BLACKBLU+BLU+

Ora: 13:55 (11:55 UTC)

Previsione

Il bollettino è stato emesso 7 ore e 35 minuti fa, alle 04:20 UTC
Previsione valida dal 21 alle 05 UTC al 21 alle 14 UTC
Vento 3 kt da direzioni variabili
Visibilità 10 km o più
Poco nuvoloso ad un'altezza di 30000 ft
Evoluzione graduale
dal 21 alle 07 UTC al 21 alle 09 UTC
Vento 7 kt da est/nord-est
Visibilità 10 km o più
Poco nuvoloso ad un'altezza di 5000 ft
Nubi sparse ad un'altezza di 30000 ft

TAF: ETHA 210420Z 2105/2114 VRB03KT 9999 NSW FEW300 BECMG 2107/2109 06007KT 9999 NSW FEW050 SCT300

Osservazioni e previsioni meteorologiche di più di 4000 aeroporti (messaggi METAR e TAF).

Le stazioni disponibili sono rappresentate dai dischi gialli e rossi sulla carta.

Puntare il mouse per vedere il nome della stazione.

Clicca sopra per visualizzare le osservazioni e previsioni meteorologiche.

Per cambiare la mappa : fare clic sui pulsanti verdi con una croce nera per ingrandire, il pulsante verde con un trattino per diminuire, o sulla freccia verde per le mappe adiacenti.


METAR-TAF: